Andover, Kansas
Current Conditions -  °F | °C
As of 10:54 PM on Saturday 25 Oct 2014 (Local Time) from KAAO Reporting Station
Clear Clear  
Wind Chill: 70°   Ceiling: Unl
Heat Index: 70°   Visibility: NA
Dew Point: 59°   Wind: 10mph
Humidity: 68%   Direction: 170°S
Pressure: 29.95"   Gusts: NA
Location:  37.71°N, 97.14°W
Report Text: KAAO 260354Z AUTO 17009KT CLR 21/15 A2995 RMK AO2 SLP130 T02110150 $
Loading
Personal Weather Stations






























Interactive Weather Map New forecast layout! Learn more

10-Day Weather Forecast

Advertisements
Track Severe Weather on mobile